sensor_id;sensor_type;location;lat;lon;timestamp;temperature;humidity
49132;DHT22;35149;51.196;6.204;2022-10-17T00:00:44;17.00;75.90
49132;DHT22;35149;51.196;6.204;2022-10-17T00:03:10;17.00;75.90
49132;DHT22;35149;51.196;6.204;2022-10-17T00:05:42;17.00;75.90
49132;DHT22;35149;51.196;6.204;2022-10-17T00:08:13;16.90;75.80
49132;DHT22;35149;51.196;6.204;2022-10-17T00:10:40;16.90;75.80
49132;DHT22;35149;51.196;6.204;2022-10-17T00:13:10;16.90;75.90
49132;DHT22;35149;51.196;6.204;2022-10-17T00:15:37;16.90;75.90
49132;DHT22;35149;51.196;6.204;2022-10-17T00:18:04;16.90;75.90
49132;DHT22;35149;51.196;6.204;2022-10-17T00:20:34;16.90;75.80
49132;DHT22;35149;51.196;6.204;2022-10-17T00:23:00;16.80;76.00
49132;DHT22;35149;51.196;6.204;2022-10-17T00:25:34;16.80;75.90
49132;DHT22;35149;51.196;6.204;2022-10-17T00:28:00;16.80;75.90
49132;DHT22;35149;51.196;6.204;2022-10-17T00:30:27;16.80;76.10
49132;DHT22;35149;51.196;6.204;2022-10-17T00:32:54;16.80;76.40
49132;DHT22;35149;51.196;6.204;2022-10-17T00:35:23;16.80;76.50
49132;DHT22;35149;51.196;6.204;2022-10-17T00:37:49;16.80;76.90
49132;DHT22;35149;51.196;6.204;2022-10-17T00:40:16;16.80;77.10
49132;DHT22;35149;51.196;6.204;2022-10-17T00:42:45;16.80;77.40
49132;DHT22;35149;51.196;6.204;2022-10-17T00:45:18;16.80;77.60
49132;DHT22;35149;51.196;6.204;2022-10-17T00:47:52;16.80;77.90
49132;DHT22;35149;51.196;6.204;2022-10-17T00:50:19;16.80;78.00
49132;DHT22;35149;51.196;6.204;2022-10-17T00:52:48;16.80;77.90
49132;DHT22;35149;51.196;6.204;2022-10-17T00:55:23;16.90;78.00
49132;DHT22;35149;51.196;6.204;2022-10-17T00:57:51;16.90;78.10
49132;DHT22;35149;51.196;6.204;2022-10-17T01:00:19;16.90;78.10
49132;DHT22;35149;51.196;6.204;2022-10-17T01:02:46;16.90;78.30
49132;DHT22;35149;51.196;6.204;2022-10-17T01:05:18;16.90;78.30
49132;DHT22;35149;51.196;6.204;2022-10-17T01:07:46;16.90;78.40
49132;DHT22;35149;51.196;6.204;2022-10-17T01:10:17;16.90;78.50
49132;DHT22;35149;51.196;6.204;2022-10-17T01:13:05;16.90;78.80
49132;DHT22;35149;51.196;6.204;2022-10-17T01:21:29;17.00;79.40
49132;DHT22;35149;51.196;6.204;2022-10-17T01:24:28;17.00;79.70
49132;DHT22;35149;51.196;6.204;2022-10-17T01:32:47;17.00;79.60
49132;DHT22;35149;51.196;6.204;2022-10-17T01:35:39;17.00;78.90
49132;DHT22;35149;51.196;6.204;2022-10-17T01:38:18;17.10;79.30
49132;DHT22;35149;51.196;6.204;2022-10-17T01:40:51;17.10;79.10
49132;DHT22;35149;51.196;6.204;2022-10-17T01:43:32;17.00;79.00
49132;DHT22;35149;51.196;6.204;2022-10-17T01:48:43;17.00;78.80
49132;DHT22;35149;51.196;6.204;2022-10-17T01:51:21;17.00;79.20
49132;DHT22;35149;51.196;6.204;2022-10-17T01:54:13;17.00;78.80
49132;DHT22;35149;51.196;6.204;2022-10-17T01:56:42;17.00;78.90
49132;DHT22;35149;51.196;6.204;2022-10-17T01:59:22;17.00;78.80
49132;DHT22;35149;51.196;6.204;2022-10-17T02:01:52;17.00;79.10
49132;DHT22;35149;51.196;6.204;2022-10-17T02:04:21;17.00;78.90
49132;DHT22;35149;51.196;6.204;2022-10-17T02:06:47;17.00;78.80
49132;DHT22;35149;51.196;6.204;2022-10-17T02:09:23;17.00;78.90
49132;DHT22;35149;51.196;6.204;2022-10-17T02:12:23;17.00;79.30
49132;DHT22;35149;51.196;6.204;2022-10-17T02:17:51;17.00;79.70
49132;DHT22;35149;51.196;6.204;2022-10-17T02:20:25;17.00;79.50
49132;DHT22;35149;51.196;6.204;2022-10-17T02:23:10;17.00;79.20
49132;DHT22;35149;51.196;6.204;2022-10-17T02:26:08;17.00;79.90
49132;DHT22;35149;51.196;6.204;2022-10-17T02:28:41;17.00;79.60
49132;DHT22;35149;51.196;6.204;2022-10-17T02:31:20;17.00;79.30
49132;DHT22;35149;51.196;6.204;2022-10-17T02:33:58;17.00;79.30
49132;DHT22;35149;51.196;6.204;2022-10-17T02:36:31;17.00;79.20
49132;DHT22;35149;51.196;6.204;2022-10-17T02:39:00;17.00;79.30
49132;DHT22;35149;51.196;6.204;2022-10-17T02:41:29;16.90;79.30
49132;DHT22;35149;51.196;6.204;2022-10-17T02:44:00;17.00;79.50
49132;DHT22;35149;51.196;6.204;2022-10-17T02:46:28;16.90;79.50
49132;DHT22;35149;51.196;6.204;2022-10-17T02:49:15;16.90;79.50
49132;DHT22;35149;51.196;6.204;2022-10-17T02:51:48;16.90;79.60
49132;DHT22;35149;51.196;6.204;2022-10-17T02:54:19;17.00;79.70
49132;DHT22;35149;51.196;6.204;2022-10-17T02:56:57;16.90;79.50
49132;DHT22;35149;51.196;6.204;2022-10-17T02:59:27;17.00;79.80
49132;DHT22;35149;51.196;6.204;2022-10-17T03:02:02;17.00;79.70
49132;DHT22;35149;51.196;6.204;2022-10-17T03:04:30;17.00;79.70
49132;DHT22;35149;51.196;6.204;2022-10-17T03:06:56;17.00;79.60
49132;DHT22;35149;51.196;6.204;2022-10-17T03:09:23;17.00;79.40
49132;DHT22;35149;51.196;6.204;2022-10-17T03:11:52;16.90;79.20
49132;DHT22;35149;51.196;6.204;2022-10-17T03:14:19;16.90;79.20
49132;DHT22;35149;51.196;6.204;2022-10-17T03:16:45;16.90;79.90
49132;DHT22;35149;51.196;6.204;2022-10-17T03:19:16;16.90;79.20
49132;DHT22;35149;51.196;6.204;2022-10-17T03:21:42;16.90;79.00
49132;DHT22;35149;51.196;6.204;2022-10-17T03:24:10;16.90;78.90
49132;DHT22;35149;51.196;6.204;2022-10-17T03:26:37;16.90;79.00
49132;DHT22;35149;51.196;6.204;2022-10-17T03:29:05;16.90;79.10
49132;DHT22;35149;51.196;6.204;2022-10-17T03:31:33;16.80;79.10
49132;DHT22;35149;51.196;6.204;2022-10-17T03:34:01;16.80;79.10
49132;DHT22;35149;51.196;6.204;2022-10-17T03:36:28;16.80;79.10
49132;DHT22;35149;51.196;6.204;2022-10-17T03:38:55;16.80;79.20
49132;DHT22;35149;51.196;6.204;2022-10-17T03:41:22;16.80;79.20
49132;DHT22;35149;51.196;6.204;2022-10-17T03:43:51;16.80;79.30
49132;DHT22;35149;51.196;6.204;2022-10-17T03:46:19;16.80;79.60
49132;DHT22;35149;51.196;6.204;2022-10-17T03:48:46;16.80;79.60
49132;DHT22;35149;51.196;6.204;2022-10-17T03:51:15;16.80;79.70
49132;DHT22;35149;51.196;6.204;2022-10-17T03:53:50;16.80;79.80
49132;DHT22;35149;51.196;6.204;2022-10-17T03:56:19;16.80;79.80
49132;DHT22;35149;51.196;6.204;2022-10-17T03:58:55;16.80;80.00
49132;DHT22;35149;51.196;6.204;2022-10-17T04:01:22;16.80;80.10
49132;DHT22;35149;51.196;6.204;2022-10-17T04:03:53;16.90;80.30
49132;DHT22;35149;51.196;6.204;2022-10-17T04:06:25;16.90;80.40
49132;DHT22;35149;51.196;6.204;2022-10-17T04:08:52;16.90;80.40
49132;DHT22;35149;51.196;6.204;2022-10-17T04:11:39;16.90;80.50
49132;DHT22;35149;51.196;6.204;2022-10-17T04:14:06;16.90;80.40
49132;DHT22;35149;51.196;6.204;2022-10-17T04:16:37;16.90;80.90
49132;DHT22;35149;51.196;6.204;2022-10-17T04:19:11;17.00;80.20
49132;DHT22;35149;51.196;6.204;2022-10-17T04:21:45;17.00;80.20
49132;DHT22;35149;51.196;6.204;2022-10-17T04:24:13;17.00;79.90
49132;DHT22;35149;51.196;6.204;2022-10-17T04:26:58;17.00;79.90
49132;DHT22;35149;51.196;6.204;2022-10-17T04:29:30;17.00;79.90
49132;DHT22;35149;51.196;6.204;2022-10-17T04:32:05;17.00;80.00
49132;DHT22;35149;51.196;6.204;2022-10-17T04:34:38;17.00;79.90
49132;DHT22;35149;51.196;6.204;2022-10-17T04:37:06;17.00;80.10
49132;DHT22;35149;51.196;6.204;2022-10-17T04:39:36;17.00;80.30
49132;DHT22;35149;51.196;6.204;2022-10-17T04:42:02;17.10;80.50
49132;DHT22;35149;51.196;6.204;2022-10-17T04:44:29;17.10;80.60
49132;DHT22;35149;51.196;6.204;2022-10-17T04:46:59;17.10;80.70
49132;DHT22;35149;51.196;6.204;2022-10-17T04:49:26;17.10;80.80
49132;DHT22;35149;51.196;6.204;2022-10-17T04:51:58;17.20;80.80
49132;DHT22;35149;51.196;6.204;2022-10-17T04:54:36;17.20;80.50
49132;DHT22;35149;51.196;6.204;2022-10-17T04:57:07;17.20;80.30
49132;DHT22;35149;51.196;6.204;2022-10-17T04:59:33;17.30;80.30
49132;DHT22;35149;51.196;6.204;2022-10-17T05:02:19;17.20;80.00
49132;DHT22;35149;51.196;6.204;2022-10-17T05:04:46;17.30;80.00
49132;DHT22;35149;51.196;6.204;2022-10-17T05:07:15;17.30;80.10
49132;DHT22;35149;51.196;6.204;2022-10-17T05:09:52;17.30;80.30
49132;DHT22;35149;51.196;6.204;2022-10-17T05:12:18;17.30;80.40
49132;DHT22;35149;51.196;6.204;2022-10-17T05:14:46;17.30;80.60
49132;DHT22;35149;51.196;6.204;2022-10-17T05:17:16;17.30;80.60
49132;DHT22;35149;51.196;6.204;2022-10-17T05:19:43;17.30;80.80
49132;DHT22;35149;51.196;6.204;2022-10-17T05:22:13;17.30;81.30
49132;DHT22;35149;51.196;6.204;2022-10-17T05:24:42;17.30;80.60
49132;DHT22;35149;51.196;6.204;2022-10-17T05:27:10;17.40;80.60
49132;DHT22;35149;51.196;6.204;2022-10-17T05:29:36;17.40;80.50
49132;DHT22;35149;51.196;6.204;2022-10-17T05:32:17;17.40;80.40
49132;DHT22;35149;51.196;6.204;2022-10-17T05:34:44;17.40;80.20
49132;DHT22;35149;51.196;6.204;2022-10-17T05:37:11;17.30;80.10
49132;DHT22;35149;51.196;6.204;2022-10-17T05:39:40;17.40;80.10
49132;DHT22;35149;51.196;6.204;2022-10-17T05:42:08;17.40;80.00
49132;DHT22;35149;51.196;6.204;2022-10-17T05:44:40;17.40;79.90
49132;DHT22;35149;51.196;6.204;2022-10-17T05:47:07;17.30;79.70
49132;DHT22;35149;51.196;6.204;2022-10-17T05:49:34;17.30;79.60
49132;DHT22;35149;51.196;6.204;2022-10-17T05:52:12;17.30;79.50
49132;DHT22;35149;51.196;6.204;2022-10-17T05:54:52;17.20;79.50
49132;DHT22;35149;51.196;6.204;2022-10-17T05:57:27;17.20;79.60
49132;DHT22;35149;51.196;6.204;2022-10-17T05:59:54;17.20;79.60
49132;DHT22;35149;51.196;6.204;2022-10-17T06:02:21;17.20;79.70
49132;DHT22;35149;51.196;6.204;2022-10-17T06:04:48;17.20;79.70
49132;DHT22;35149;51.196;6.204;2022-10-17T06:07:17;17.20;79.60
49132;DHT22;35149;51.196;6.204;2022-10-17T06:09:44;17.20;79.60
49132;DHT22;35149;51.196;6.204;2022-10-17T06:12:16;17.20;79.60
49132;DHT22;35149;51.196;6.204;2022-10-17T06:14:44;17.20;79.50
49132;DHT22;35149;51.196;6.204;2022-10-17T06:17:12;17.20;79.60
49132;DHT22;35149;51.196;6.204;2022-10-17T06:19:42;17.20;79.70
49132;DHT22;35149;51.196;6.204;2022-10-17T06:22:11;17.20;79.60
49132;DHT22;35149;51.196;6.204;2022-10-17T06:24:39;17.20;79.60
49132;DHT22;35149;51.196;6.204;2022-10-17T06:27:05;17.20;79.60
49132;DHT22;35149;51.196;6.204;2022-10-17T06:29:37;17.20;79.50
49132;DHT22;35149;51.196;6.204;2022-10-17T06:32:05;17.20;79.40
49132;DHT22;35149;51.196;6.204;2022-10-17T06:34:38;17.20;79.40
49132;DHT22;35149;51.196;6.204;2022-10-17T06:37:05;17.20;79.30
49132;DHT22;35149;51.196;6.204;2022-10-17T06:39:34;17.20;79.50
49132;DHT22;35149;51.196;6.204;2022-10-17T06:42:05;17.30;79.60
49132;DHT22;35149;51.196;6.204;2022-10-17T06:45:00;17.20;79.70
49132;DHT22;35149;51.196;6.204;2022-10-17T06:48:01;17.30;79.80
49132;DHT22;35149;51.196;6.204;2022-10-17T06:50:50;17.30;80.40
49132;DHT22;35149;51.196;6.204;2022-10-17T06:53:22;17.30;79.60
49132;DHT22;35149;51.196;6.204;2022-10-17T06:56:24;17.30;79.70
49132;DHT22;35149;51.196;6.204;2022-10-17T06:59:09;17.40;79.80
49132;DHT22;35149;51.196;6.204;2022-10-17T07:01:39;17.30;79.80
49132;DHT22;35149;51.196;6.204;2022-10-17T07:04:13;17.40;79.90
49132;DHT22;35149;51.196;6.204;2022-10-17T07:06:40;17.40;80.10
49132;DHT22;35149;51.196;6.204;2022-10-17T07:09:13;17.50;80.40
49132;DHT22;35149;51.196;6.204;2022-10-17T07:11:40;17.40;80.40
49132;DHT22;35149;51.196;6.204;2022-10-17T07:14:09;17.60;80.70
49132;DHT22;35149;51.196;6.204;2022-10-17T07:16:36;17.50;80.70
49132;DHT22;35149;51.196;6.204;2022-10-17T07:19:21;17.60;80.90
49132;DHT22;35149;51.196;6.204;2022-10-17T07:21:49;17.60;80.80
49132;DHT22;35149;51.196;6.204;2022-10-17T07:24:16;17.70;80.90
49132;DHT22;35149;51.196;6.204;2022-10-17T07:26:47;17.70;80.90
49132;DHT22;35149;51.196;6.204;2022-10-17T07:29:17;17.80;81.00
49132;DHT22;35149;51.196;6.204;2022-10-17T07:31:52;17.80;80.90
49132;DHT22;35149;51.196;6.204;2022-10-17T07:34:24;17.90;81.10
49132;DHT22;35149;51.196;6.204;2022-10-17T07:36:53;17.90;81.30
49132;DHT22;35149;51.196;6.204;2022-10-17T07:39:19;18.00;81.60
49132;DHT22;35149;51.196;6.204;2022-10-17T07:41:48;18.10;81.90
49132;DHT22;35149;51.196;6.204;2022-10-17T07:44:15;18.10;82.10
49132;DHT22;35149;51.196;6.204;2022-10-17T07:46:45;18.20;82.20
49132;DHT22;35149;51.196;6.204;2022-10-17T07:49:12;18.20;82.20
49132;DHT22;35149;51.196;6.204;2022-10-17T07:51:41;18.30;82.10
49132;DHT22;35149;51.196;6.204;2022-10-17T07:54:08;18.40;82.20
49132;DHT22;35149;51.196;6.204;2022-10-17T07:56:35;18.50;82.20
49132;DHT22;35149;51.196;6.204;2022-10-17T07:59:04;18.60;82.20
49132;DHT22;35149;51.196;6.204;2022-10-17T08:01:35;18.70;82.00
49132;DHT22;35149;51.196;6.204;2022-10-17T08:04:02;18.70;81.90
49132;DHT22;35149;51.196;6.204;2022-10-17T08:06:31;18.80;81.70
49132;DHT22;35149;51.196;6.204;2022-10-17T08:08:58;18.90;81.70
49132;DHT22;35149;51.196;6.204;2022-10-17T08:11:31;19.00;81.70
49132;DHT22;35149;51.196;6.204;2022-10-17T08:14:00;19.00;81.70
49132;DHT22;35149;51.196;6.204;2022-10-17T08:16:27;19.10;81.60
49132;DHT22;35149;51.196;6.204;2022-10-17T08:18:56;19.20;82.10
49132;DHT22;35149;51.196;6.204;2022-10-17T08:21:23;19.30;81.50
49132;DHT22;35149;51.196;6.204;2022-10-17T08:23:53;19.30;81.30
49132;DHT22;35149;51.196;6.204;2022-10-17T08:26:22;19.40;80.90
49132;DHT22;35149;51.196;6.204;2022-10-17T08:28:51;19.50;80.80
49132;DHT22;35149;51.196;6.204;2022-10-17T08:31:19;19.60;81.00
49132;DHT22;35149;51.196;6.204;2022-10-17T08:33:49;19.60;80.20
49132;DHT22;35149;51.196;6.204;2022-10-17T08:36:18;19.70;80.20
49132;DHT22;35149;51.196;6.204;2022-10-17T08:38:47;19.80;80.30
49132;DHT22;35149;51.196;6.204;2022-10-17T08:41:35;19.80;80.30
49132;DHT22;35149;51.196;6.204;2022-10-17T08:47:11;20.10;80.00
49132;DHT22;35149;51.196;6.204;2022-10-17T08:49:46;20.10;80.10
49132;DHT22;35149;51.196;6.204;2022-10-17T08:52:32;20.20;79.60
49132;DHT22;35149;51.196;6.204;2022-10-17T08:55:07;20.30;79.40
49132;DHT22;35149;51.196;6.204;2022-10-17T08:57:37;20.40;79.10
49132;DHT22;35149;51.196;6.204;2022-10-17T09:00:19;20.50;78.80
49132;DHT22;35149;51.196;6.204;2022-10-17T09:05:38;20.60;77.70
49132;DHT22;35149;51.196;6.204;2022-10-17T09:19:44;20.90;76.70
49132;DHT22;35149;51.196;6.204;2022-10-17T09:22:16;20.90;76.90
49132;DHT22;35149;51.196;6.204;2022-10-17T09:27:49;20.90;76.80
49132;DHT22;35149;51.196;6.204;2022-10-17T09:30:41;21.00;76.30
49132;DHT22;35149;51.196;6.204;2022-10-17T09:33:22;21.00;76.00
49132;DHT22;35149;51.196;6.204;2022-10-17T09:36:21;21.00;76.10
49132;DHT22;35149;51.196;6.204;2022-10-17T09:38:59;21.00;75.50
49132;DHT22;35149;51.196;6.204;2022-10-17T09:41:49;21.10;75.80
49132;DHT22;35149;51.196;6.204;2022-10-17T09:47:17;21.10;75.60
49132;DHT22;35149;51.196;6.204;2022-10-17T09:49:48;21.10;74.80
49132;DHT22;35149;51.196;6.204;2022-10-17T09:54:45;21.20;75.00
49132;DHT22;35149;51.196;6.204;2022-10-17T09:57:14;21.10;74.90
49132;DHT22;35149;51.196;6.204;2022-10-17T09:59:58;21.20;74.80
49132;DHT22;35149;51.196;6.204;2022-10-17T10:02:29;21.20;74.80
49132;DHT22;35149;51.196;6.204;2022-10-17T10:05:17;21.10;74.80
49132;DHT22;35149;51.196;6.204;2022-10-17T10:08:16;21.20;74.90
49132;DHT22;35149;51.196;6.204;2022-10-17T10:10:44;21.20;75.30
49132;DHT22;35149;51.196;6.204;2022-10-17T10:13:17;21.20;74.90
49132;DHT22;35149;51.196;6.204;2022-10-17T10:15:48;21.20;74.40
49132;DHT22;35149;51.196;6.204;2022-10-17T10:18:35;21.20;74.70
49132;DHT22;35149;51.196;6.204;2022-10-17T10:23:40;21.30;74.10
49132;DHT22;35149;51.196;6.204;2022-10-17T10:26:17;21.30;74.20
49132;DHT22;35149;51.196;6.204;2022-10-17T10:28:56;21.30;73.70
49132;DHT22;35149;51.196;6.204;2022-10-17T10:31:29;21.40;73.60
49132;DHT22;35149;51.196;6.204;2022-10-17T10:37:00;21.50;73.50
49132;DHT22;35149;51.196;6.204;2022-10-17T10:42:38;21.40;73.60
49132;DHT22;35149;51.196;6.204;2022-10-17T10:45:16;21.40;73.50
49132;DHT22;35149;51.196;6.204;2022-10-17T10:50:58;21.40;74.10
49132;DHT22;35149;51.196;6.204;2022-10-17T10:53:43;21.40;74.40
49132;DHT22;35149;51.196;6.204;2022-10-17T10:56:29;21.40;75.10
49132;DHT22;35149;51.196;6.204;2022-10-17T11:01:55;21.40;75.80
49132;DHT22;35149;51.196;6.204;2022-10-17T11:07:31;21.50;75.50
49132;DHT22;35149;51.196;6.204;2022-10-17T11:10:22;21.50;75.40
49132;DHT22;35149;51.196;6.204;2022-10-17T11:15:43;21.50;75.20
49132;DHT22;35149;51.196;6.204;2022-10-17T11:18:23;21.50;74.80
49132;DHT22;35149;51.196;6.204;2022-10-17T11:23:47;21.60;74.70
49132;DHT22;35149;51.196;6.204;2022-10-17T11:26:25;21.60;74.90
49132;DHT22;35149;51.196;6.204;2022-10-17T11:29:03;21.60;75.00
49132;DHT22;35149;51.196;6.204;2022-10-17T11:31:37;21.60;75.00
49132;DHT22;35149;51.196;6.204;2022-10-17T11:34:31;21.60;75.20
49132;DHT22;35149;51.196;6.204;2022-10-17T11:37:03;21.60;75.00
49132;DHT22;35149;51.196;6.204;2022-10-17T11:39:40;21.60;75.10
49132;DHT22;35149;51.196;6.204;2022-10-17T11:42:13;21.60;75.10
49132;DHT22;35149;51.196;6.204;2022-10-17T11:44:44;21.60;74.80
49132;DHT22;35149;51.196;6.204;2022-10-17T11:47:38;21.60;74.80
49132;DHT22;35149;51.196;6.204;2022-10-17T11:50:28;21.60;75.00
49132;DHT22;35149;51.196;6.204;2022-10-17T11:53:32;21.60;75.30
49132;DHT22;35149;51.196;6.204;2022-10-17T11:56:02;21.60;75.10
49132;DHT22;35149;51.196;6.204;2022-10-17T11:58:51;21.50;75.10
49132;DHT22;35149;51.196;6.204;2022-10-17T12:01:39;21.50;75.10
49132;DHT22;35149;51.196;6.204;2022-10-17T12:09:58;21.50;75.10
49132;DHT22;35149;51.196;6.204;2022-10-17T12:12:31;21.50;75.50
49132;DHT22;35149;51.196;6.204;2022-10-17T12:17:59;21.60;75.10
49132;DHT22;35149;51.196;6.204;2022-10-17T12:20:32;21.70;75.10
49132;DHT22;35149;51.196;6.204;2022-10-17T12:26:01;21.80;74.30
49132;DHT22;35149;51.196;6.204;2022-10-17T12:28:44;21.80;74.30
49132;DHT22;35149;51.196;6.204;2022-10-17T12:33:52;21.90;73.90
49132;DHT22;35149;51.196;6.204;2022-10-17T12:55:11;22.10;72.00
49132;DHT22;35149;51.196;6.204;2022-10-17T12:57:55;22.10;72.30
49132;DHT22;35149;51.196;6.204;2022-10-17T13:00:30;22.10;72.40
49132;DHT22;35149;51.196;6.204;2022-10-17T13:03:13;22.00;72.60
49132;DHT22;35149;51.196;6.204;2022-10-17T13:05:50;22.10;72.90
49132;DHT22;35149;51.196;6.204;2022-10-17T13:08:33;22.10;72.70
49132;DHT22;35149;51.196;6.204;2022-10-17T13:11:06;22.00;72.70
49132;DHT22;35149;51.196;6.204;2022-10-17T13:13:45;22.00;72.80
49132;DHT22;35149;51.196;6.204;2022-10-17T13:16:33;22.00;72.70
49132;DHT22;35149;51.196;6.204;2022-10-17T13:19:02;22.00;72.70
49132;DHT22;35149;51.196;6.204;2022-10-17T13:21:31;21.90;72.90
49132;DHT22;35149;51.196;6.204;2022-10-17T13:24:22;21.90;73.00
49132;DHT22;35149;51.196;6.204;2022-10-17T13:26:55;21.90;72.80
49132;DHT22;35149;51.196;6.204;2022-10-17T13:29:24;21.80;73.10
49132;DHT22;35149;51.196;6.204;2022-10-17T13:31:58;21.80;73.20
49132;DHT22;35149;51.196;6.204;2022-10-17T13:34:27;21.90;73.80
49132;DHT22;35149;51.196;6.204;2022-10-17T13:36:58;21.80;73.30
49132;DHT22;35149;51.196;6.204;2022-10-17T13:39:33;21.80;73.10
49132;DHT22;35149;51.196;6.204;2022-10-17T13:42:25;21.80;73.00
49132;DHT22;35149;51.196;6.204;2022-10-17T13:44:58;21.80;73.00
49132;DHT22;35149;51.196;6.204;2022-10-17T13:47:31;21.90;73.20
49132;DHT22;35149;51.196;6.204;2022-10-17T13:49:59;21.80;72.80
49132;DHT22;35149;51.196;6.204;2022-10-17T13:56:05;21.90;72.80
49132;DHT22;35149;51.196;6.204;2022-10-17T13:59:16;21.90;72.50
49132;DHT22;35149;51.196;6.204;2022-10-17T14:01:52;21.90;72.70
49132;DHT22;35149;51.196;6.204;2022-10-17T14:04:20;21.90;72.70
49132;DHT22;35149;51.196;6.204;2022-10-17T14:06:54;21.90;72.70
49132;DHT22;35149;51.196;6.204;2022-10-17T14:09:28;21.90;72.60
49132;DHT22;35149;51.196;6.204;2022-10-17T14:12:02;22.00;72.50
49132;DHT22;35149;51.196;6.204;2022-10-17T14:14:34;22.00;72.50
49132;DHT22;35149;51.196;6.204;2022-10-17T14:17:25;22.00;72.40
49132;DHT22;35149;51.196;6.204;2022-10-17T14:20:02;22.00;72.20
49132;DHT22;35149;51.196;6.204;2022-10-17T14:22:50;22.00;72.30
49132;DHT22;35149;51.196;6.204;2022-10-17T14:25:39;22.00;72.30
49132;DHT22;35149;51.196;6.204;2022-10-17T14:30:48;22.00;72.20
49132;DHT22;35149;51.196;6.204;2022-10-17T14:33:30;22.00;72.20
49132;DHT22;35149;51.196;6.204;2022-10-17T14:36:00;22.00;72.50
49132;DHT22;35149;51.196;6.204;2022-10-17T14:38:28;21.90;72.60
49132;DHT22;35149;51.196;6.204;2022-10-17T14:41:05;21.90;72.80
49132;DHT22;35149;51.196;6.204;2022-10-17T14:44:05;22.00;72.80
49132;DHT22;35149;51.196;6.204;2022-10-17T14:46:34;22.00;73.10
49132;DHT22;35149;51.196;6.204;2022-10-17T14:51:37;22.00;73.00
49132;DHT22;35149;51.196;6.204;2022-10-17T14:54:26;22.00;73.10
49132;DHT22;35149;51.196;6.204;2022-10-17T14:56:57;22.00;73.10
49132;DHT22;35149;51.196;6.204;2022-10-17T14:59:26;22.00;73.20
49132;DHT22;35149;51.196;6.204;2022-10-17T15:02:16;22.00;73.30
49132;DHT22;35149;51.196;6.204;2022-10-17T15:04:46;22.00;73.20
49132;DHT22;35149;51.196;6.204;2022-10-17T15:07:16;22.00;73.20
49132;DHT22;35149;51.196;6.204;2022-10-17T15:09:49;21.90;73.20
49132;DHT22;35149;51.196;6.204;2022-10-17T15:12:18;21.90;73.50
49132;DHT22;35149;51.196;6.204;2022-10-17T15:14:46;21.90;73.70
49132;DHT22;35149;51.196;6.204;2022-10-17T15:17:16;21.80;73.80
49132;DHT22;35149;51.196;6.204;2022-10-17T15:19:46;21.80;74.00
49132;DHT22;35149;51.196;6.204;2022-10-17T15:22:13;21.70;74.10
49132;DHT22;35149;51.196;6.204;2022-10-17T15:24:41;21.70;74.20
49132;DHT22;35149;51.196;6.204;2022-10-17T15:27:18;21.70;74.40
49132;DHT22;35149;51.196;6.204;2022-10-17T15:29:47;21.70;74.60
49132;DHT22;35149;51.196;6.204;2022-10-17T15:32:14;21.60;74.60
49132;DHT22;35149;51.196;6.204;2022-10-17T15:34:41;21.60;74.80
49132;DHT22;35149;51.196;6.204;2022-10-17T15:37:19;21.60;74.90
49132;DHT22;35149;51.196;6.204;2022-10-17T15:39:49;21.60;75.20
49132;DHT22;35149;51.196;6.204;2022-10-17T15:42:21;21.50;75.30
49132;DHT22;35149;51.196;6.204;2022-10-17T15:44:48;21.50;75.10
49132;DHT22;35149;51.196;6.204;2022-10-17T15:49:48;21.30;75.30
49132;DHT22;35149;51.196;6.204;2022-10-17T15:52:15;21.20;75.30
49132;DHT22;35149;51.196;6.204;2022-10-17T15:54:42;21.20;75.30
49132;DHT22;35149;51.196;6.204;2022-10-17T15:57:16;21.10;75.60
49132;DHT22;35149;51.196;6.204;2022-10-17T15:59:44;21.10;76.10
49132;DHT22;35149;51.196;6.204;2022-10-17T16:02:13;21.00;76.00
49132;DHT22;35149;51.196;6.204;2022-10-17T16:04:41;21.00;76.20
49132;DHT22;35149;51.196;6.204;2022-10-17T16:07:08;20.90;76.30
49132;DHT22;35149;51.196;6.204;2022-10-17T16:09:35;20.90;76.40
49132;DHT22;35149;51.196;6.204;2022-10-17T16:12:10;20.90;76.50
49132;DHT22;35149;51.196;6.204;2022-10-17T16:14:39;20.90;76.80
49132;DHT22;35149;51.196;6.204;2022-10-17T16:17:11;20.80;76.60
49132;DHT22;35149;51.196;6.204;2022-10-17T16:19:38;20.80;76.80
49132;DHT22;35149;51.196;6.204;2022-10-17T16:22:05;20.80;76.70
49132;DHT22;35149;51.196;6.204;2022-10-17T16:24:34;20.80;76.80
49132;DHT22;35149;51.196;6.204;2022-10-17T16:27:00;20.80;76.90
49132;DHT22;35149;51.196;6.204;2022-10-17T16:29:27;20.70;76.80
49132;DHT22;35149;51.196;6.204;2022-10-17T16:31:54;20.70;76.90
49132;DHT22;35149;51.196;6.204;2022-10-17T16:34:21;20.70;76.80
49132;DHT22;35149;51.196;6.204;2022-10-17T16:36:47;20.70;76.80
49132;DHT22;35149;51.196;6.204;2022-10-17T16:39:21;20.70;76.80
49132;DHT22;35149;51.196;6.204;2022-10-17T16:41:56;20.70;76.80
49132;DHT22;35149;51.196;6.204;2022-10-17T16:44:27;20.60;76.90
49132;DHT22;35149;51.196;6.204;2022-10-17T16:46:58;20.60;76.90
49132;DHT22;35149;51.196;6.204;2022-10-17T16:49:25;20.60;77.00
49132;DHT22;35149;51.196;6.204;2022-10-17T16:51:55;20.60;77.00
49132;DHT22;35149;51.196;6.204;2022-10-17T16:54:22;20.50;77.00
49132;DHT22;35149;51.196;6.204;2022-10-17T16:56:48;20.50;77.00
49132;DHT22;35149;51.196;6.204;2022-10-17T16:59:15;20.50;77.20
49132;DHT22;35149;51.196;6.204;2022-10-17T17:01:42;20.50;77.20
49132;DHT22;35149;51.196;6.204;2022-10-17T17:04:11;20.40;77.30
49132;DHT22;35149;51.196;6.204;2022-10-17T17:06:38;20.40;77.60
49132;DHT22;35149;51.196;6.204;2022-10-17T17:09:06;20.40;77.70
49132;DHT22;35149;51.196;6.204;2022-10-17T17:11:35;20.40;77.90
49132;DHT22;35149;51.196;6.204;2022-10-17T17:14:03;20.30;78.00
49132;DHT22;35149;51.196;6.204;2022-10-17T17:16:32;20.30;78.00
49132;DHT22;35149;51.196;6.204;2022-10-17T17:19:07;20.30;78.10
49132;DHT22;35149;51.196;6.204;2022-10-17T17:21:35;20.30;78.30
49132;DHT22;35149;51.196;6.204;2022-10-17T17:24:05;20.30;78.20
49132;DHT22;35149;51.196;6.204;2022-10-17T17:26:33;20.30;78.30
49132;DHT22;35149;51.196;6.204;2022-10-17T17:29:04;20.30;78.20
49132;DHT22;35149;51.196;6.204;2022-10-17T17:31:32;20.30;78.20
49132;DHT22;35149;51.196;6.204;2022-10-17T17:33:59;20.30;78.80
49132;DHT22;35149;51.196;6.204;2022-10-17T17:36:29;20.30;78.10
49132;DHT22;35149;51.196;6.204;2022-10-17T17:39:00;20.30;78.10
49132;DHT22;35149;51.196;6.204;2022-10-17T17:41:27;20.20;78.00
49132;DHT22;35149;51.196;6.204;2022-10-17T17:43:54;20.20;77.80
49132;DHT22;35149;51.196;6.204;2022-10-17T17:46:23;20.10;77.80
49132;DHT22;35149;51.196;6.204;2022-10-17T17:48:55;20.20;77.60
49132;DHT22;35149;51.196;6.204;2022-10-17T17:51:25;20.20;77.60
49132;DHT22;35149;51.196;6.204;2022-10-17T17:53:57;20.20;77.70
49132;DHT22;35149;51.196;6.204;2022-10-17T17:56:26;20.10;77.60